createdAt,value
2019-01-02T00:03:05.094Z,73.60
2019-01-02T00:07:22.977Z,73.40
2019-01-02T00:11:41.032Z,71.80
2019-01-02T00:16:06.082Z,68.70
2019-01-02T00:20:30.710Z,70.20
2019-01-02T00:29:31.971Z,70.00
2019-01-02T00:33:50.245Z,71.50
2019-01-02T00:42:52.435Z,74.40
2019-01-02T00:47:17.470Z,72.30
2019-01-02T00:51:35.079Z,81.10
2019-01-02T01:00:37.403Z,61.70
2019-01-02T01:04:55.221Z,91.90
2019-01-02T01:09:20.436Z,75.10
2019-01-02T01:13:36.333Z,75.30
2019-01-02T01:18:01.760Z,61.00
2019-01-02T01:22:30.240Z,87.10
2019-01-02T01:31:32.045Z,84.10
2019-01-02T01:35:49.819Z,61.20
2019-01-02T01:40:14.829Z,76.80
2019-01-02T01:44:32.765Z,56.30
2019-01-02T01:48:58.053Z,60.10
2019-01-02T01:53:17.551Z,82.70
2019-01-02T02:02:19.071Z,85.30
2019-01-02T02:06:34.960Z,82.00
2019-01-02T02:10:52.980Z,77.00
2019-01-02T02:15:37.390Z,59.00
2019-01-02T02:19:55.531Z,58.30
2019-01-02T02:24:21.017Z,57.40
2019-01-02T02:28:39.309Z,49.90
2019-01-02T02:33:04.421Z,80.50
2019-01-02T02:37:20.431Z,56.90
2019-01-02T02:50:58.867Z,54.60
2019-01-02T02:55:27.064Z,60.00
2019-01-02T02:59:52.097Z,73.40
2019-01-02T03:04:09.540Z,66.90
2019-01-02T03:08:34.856Z,40.60
2019-01-02T03:12:52.547Z,75.50
2019-01-02T03:17:17.886Z,72.20
2019-01-02T03:21:56.841Z,64.90
2019-01-02T03:26:22.056Z,50.90
2019-01-02T03:30:38.145Z,55.00
2019-01-02T03:34:58.053Z,46.20
2019-01-02T03:39:23.085Z,53.60
2019-01-02T03:43:40.573Z,58.00
2019-01-02T03:48:05.693Z,69.60
2019-01-02T03:52:23.358Z,51.60
2019-01-02T03:56:41.312Z,46.00
2019-01-02T04:01:06.408Z,51.90
2019-01-02T04:05:25.142Z,72.30
2019-01-02T04:09:42.697Z,61.80
2019-01-02T04:14:00.364Z,43.20
2019-01-02T04:18:25.426Z,68.50
2019-01-02T04:22:43.248Z,55.00
2019-01-02T04:27:00.842Z,50.50
2019-01-02T04:35:52.690Z,53.90
2019-01-02T04:40:11.313Z,55.20
2019-01-02T04:44:36.326Z,58.60
2019-01-02T04:48:53.843Z,63.70
2019-01-02T04:53:11.838Z,56.90
2019-01-02T04:57:36.856Z,58.50
2019-01-02T05:01:54.620Z,57.30
2019-01-02T05:06:19.646Z,57.30
2019-01-02T05:10:38.967Z,57.50
2019-01-02T05:15:15.140Z,58.10
2019-01-02T05:19:40.145Z,60.80
2019-01-02T05:23:58.304Z,62.30
2019-01-02T05:28:23.363Z,57.30
2019-01-02T05:32:40.950Z,55.80
2019-01-02T05:41:42.406Z,59.30
2019-01-02T05:46:00.586Z,62.20
2019-01-02T05:50:19.310Z,56.70
2019-01-02T05:54:44.336Z,53.00
2019-01-02T05:59:01.990Z,54.70
2019-01-02T06:03:27.076Z,55.80
2019-01-02T06:07:45.350Z,55.10
2019-01-02T06:12:03.093Z,55.00
2019-01-02T06:16:20.843Z,59.20
2019-01-02T06:20:36.770Z,58.30
2019-01-02T06:25:01.805Z,57.10
2019-01-02T06:29:19.829Z,52.30
2019-01-02T06:33:44.899Z,55.10
2019-01-02T06:38:02.557Z,51.90
2019-01-02T06:42:27.579Z,54.10
2019-01-02T06:46:45.656Z,53.00
2019-01-02T06:51:10.687Z,53.70
2019-01-02T06:55:28.266Z,52.10
2019-01-02T07:04:29.545Z,54.90
2019-01-02T07:08:47.804Z,54.10
2019-01-02T07:13:05.323Z,54.10
2019-01-02T07:17:23.189Z,53.60
2019-01-02T07:21:49.211Z,52.90
2019-01-02T07:26:07.413Z,52.50
2019-01-02T07:30:25.416Z,53.20
2019-01-02T07:35:29.019Z,53.50
2019-01-02T07:40:06.188Z,54.20
2019-01-02T07:45:09.787Z,51.40
2019-01-02T07:49:46.975Z,52.50
2019-01-02T07:54:32.849Z,51.70
2019-01-02T07:58:51.997Z,52.40
2019-01-02T08:03:37.802Z,55.70
2019-01-02T08:08:00.557Z,51.50
2019-01-02T08:17:38.266Z,52.50
2019-01-02T08:21:58.009Z,54.70
2019-01-02T08:26:46.539Z,51.80
2019-01-02T08:31:23.804Z,50.80
2019-01-02T08:36:27.408Z,51.00
2019-01-02T08:41:04.873Z,50.30
2019-01-02T08:45:50.739Z,52.10
2019-01-02T08:55:53.845Z,52.40
2019-01-02T09:00:17.663Z,52.90
2019-01-02T09:20:13.489Z,55.40
2019-01-02T09:29:50.679Z,51.90
2019-01-02T10:25:59.432Z,60.30
2019-01-02T10:55:22.675Z,58.70
2019-01-02T11:53:51.693Z,57.40
2019-01-02T11:58:16.730Z,55.90
2019-01-02T12:02:34.817Z,46.40
2019-01-02T12:06:59.924Z,35.40
2019-01-02T12:11:21.646Z,32.60
2019-01-02T12:15:46.681Z,30.00
2019-01-02T12:20:04.683Z,29.10
2019-01-02T12:24:29.692Z,29.30
2019-01-02T12:28:47.800Z,30.00
2019-01-02T12:33:12.852Z,28.10
2019-01-02T12:37:32.431Z,28.50
2019-01-02T12:41:57.517Z,30.00
2019-01-02T12:46:15.204Z,28.30
2019-01-02T12:56:16.707Z,31.30
2019-01-02T13:00:39.156Z,36.50
2019-01-02T13:05:01.347Z,39.70
2019-01-02T13:09:38.439Z,44.20
2019-01-02T13:30:54.458Z,59.10
2019-01-02T13:59:39.487Z,57.70
2019-01-02T14:08:03.418Z,56.40
2019-01-02T14:12:09.121Z,56.60
2019-01-02T14:16:14.907Z,56.30
2019-01-02T14:20:20.640Z,54.80
2019-01-02T14:24:26.339Z,56.30
2019-01-02T14:28:32.006Z,60.50
2019-01-02T14:32:37.722Z,58.20
2019-01-02T14:36:43.423Z,57.20
2019-01-02T14:40:49.110Z,57.40
2019-01-02T14:44:54.787Z,60.50
2019-01-02T14:49:00.466Z,56.70
2019-01-02T14:53:06.294Z,57.80
2019-01-02T14:57:12.098Z,63.00
2019-01-02T15:01:18.263Z,60.30
2019-01-02T15:05:23.935Z,58.00
2019-01-02T15:09:29.632Z,56.80
2019-01-02T15:13:35.310Z,65.10
2019-01-02T15:17:41.004Z,58.30
2019-01-02T15:21:46.706Z,56.00
2019-01-02T15:25:52.366Z,57.50
2019-01-02T15:29:58.047Z,56.50
2019-01-02T15:34:03.811Z,53.60
2019-01-02T15:38:09.500Z,61.20
2019-01-02T15:42:16.135Z,54.20
2019-01-02T15:46:21.869Z,59.40
2019-01-02T15:50:27.566Z,59.10
2019-01-02T15:54:33.270Z,56.40
2019-01-02T15:58:39.015Z,56.30
2019-01-02T16:02:44.699Z,61.90
2019-01-02T16:06:50.374Z,57.90
2019-01-02T16:10:56.059Z,56.30
2019-01-02T16:15:01.758Z,54.50
2019-01-02T16:19:08.429Z,60.80
2019-01-02T16:23:14.161Z,63.00
2019-01-02T16:27:19.875Z,56.30
2019-01-02T16:31:25.650Z,77.20
2019-01-02T16:35:31.338Z,77.30
2019-01-02T16:39:37.041Z,65.70
2019-01-02T16:43:42.814Z,52.00
2019-01-02T16:47:48.506Z,59.30
2019-01-02T16:51:54.364Z,63.40
2019-01-02T16:56:00.114Z,75.80
2019-01-02T17:00:09.990Z,61.00
2019-01-02T17:04:15.696Z,60.40
2019-01-02T17:08:21.391Z,61.30
2019-01-02T17:12:27.104Z,61.50
2019-01-02T17:16:32.913Z,62.30
2019-01-02T17:20:38.575Z,56.70
2019-01-02T17:24:44.284Z,57.00
2019-01-02T17:28:50.031Z,62.80
2019-01-02T17:32:55.731Z,70.80
2019-01-02T17:37:01.415Z,58.90
2019-01-02T17:41:07.122Z,53.00
2019-01-02T17:45:12.817Z,55.10
2019-01-02T17:49:18.496Z,64.70
2019-01-02T17:53:24.206Z,62.90
2019-01-02T17:57:29.891Z,59.60
2019-01-02T18:01:35.600Z,64.60
2019-01-02T18:05:42.628Z,57.20
2019-01-02T18:09:48.421Z,56.20
2019-01-02T18:13:54.102Z,54.30
2019-01-02T18:17:59.780Z,56.00
2019-01-02T18:22:05.562Z,65.20
2019-01-02T18:26:11.266Z,55.80
2019-01-02T18:30:16.954Z,63.00
2019-01-02T18:34:22.645Z,55.20
2019-01-02T18:38:28.302Z,52.30
2019-01-02T18:42:34.035Z,53.30
2019-01-02T18:46:39.804Z,51.80
2019-01-02T18:50:45.572Z,54.90
2019-01-02T18:54:51.241Z,58.30
2019-01-02T18:58:56.951Z,71.90
2019-01-02T19:03:02.715Z,61.30
2019-01-02T19:07:08.410Z,63.10
2019-01-02T19:11:14.124Z,76.40
2019-01-02T19:15:19.804Z,59.00
2019-01-02T19:19:25.510Z,66.20
2019-01-02T19:23:31.208Z,59.70
2019-01-02T19:27:36.982Z,62.70
2019-01-02T19:31:42.662Z,69.50
2019-01-02T19:35:48.351Z,70.10
2019-01-02T19:39:54.058Z,63.00
2019-01-02T19:43:59.755Z,62.60
2019-01-02T19:48:05.443Z,70.00
2019-01-02T19:52:11.114Z,55.70
2019-01-02T19:56:17.069Z,61.10
2019-01-02T20:00:22.782Z,82.40
2019-01-02T20:04:29.449Z,71.30
2019-01-02T20:08:35.181Z,55.20
2019-01-02T20:12:40.945Z,66.40
2019-01-02T20:16:46.672Z,78.70
2019-01-02T20:20:52.373Z,63.60
2019-01-02T20:24:58.070Z,63.80
2019-01-02T20:29:03.749Z,66.00
2019-01-02T20:33:09.448Z,61.50
2019-01-02T20:37:15.125Z,67.90
2019-01-02T20:41:20.891Z,57.40
2019-01-02T20:45:26.599Z,60.00
2019-01-02T20:49:33.275Z,68.30
2019-01-02T20:53:39.016Z,64.80
2019-01-02T20:57:44.716Z,79.20
2019-01-02T21:01:50.495Z,82.00
2019-01-02T21:05:56.241Z,65.40
2019-01-02T21:10:01.916Z,63.20
2019-01-02T21:14:07.581Z,59.80
2019-01-02T21:18:13.289Z,77.70
2019-01-02T21:22:19.070Z,69.90
2019-01-02T21:26:24.821Z,60.90
2019-01-02T21:30:30.515Z,54.30
2019-01-02T21:34:36.239Z,75.40
2019-01-02T21:38:42.036Z,62.70
2019-01-02T21:42:47.728Z,61.60
2019-01-02T21:46:53.422Z,53.90
2019-01-02T21:50:59.165Z,55.20
2019-01-02T21:55:49.896Z,52.40
2019-01-02T21:59:55.592Z,55.60
2019-01-02T22:04:01.338Z,59.60
2019-01-02T22:08:07.094Z,58.30
2019-01-02T22:12:12.790Z,65.00
2019-01-02T22:16:18.459Z,53.30
2019-01-02T22:20:24.177Z,64.00
2019-01-02T22:24:31.501Z,56.00
2019-01-02T22:28:37.173Z,63.00
2019-01-02T22:32:42.901Z,58.30
2019-01-02T22:36:48.578Z,67.20
2019-01-02T22:40:54.269Z,71.50
2019-01-02T22:45:00.035Z,70.50
2019-01-02T22:49:05.706Z,63.00
2019-01-02T22:53:11.394Z,78.50
2019-01-02T22:57:17.087Z,57.30
2019-01-02T23:01:24.646Z,53.00
2019-01-02T23:05:44.061Z,59.20
2019-01-02T23:09:57.124Z,54.40
2019-01-02T23:14:22.376Z,59.60
2019-01-02T23:18:29.776Z,58.90
2019-01-02T23:22:45.978Z,61.20
2019-01-02T23:27:02.206Z,63.80
2019-01-02T23:31:07.757Z,69.90
2019-01-02T23:35:13.429Z,59.70
2019-01-02T23:39:29.813Z,61.40
2019-01-02T23:43:42.992Z,54.20
2019-01-02T23:48:03.912Z,53.30
2019-01-02T23:52:22.961Z,58.50
2019-01-02T23:56:30.285Z,60.40
